Pagina principale
METAR-TAF:

Aeroporti :

Genova, Italia

Aeroporto di Genova-Sestri

latitudine: 44-25N, longitudine: 008-51E, altezza: 2 m

Osservazione

Il bollettino è stato emesso 43 minuti fa, alle 02:50 UTC
Vento 11 kt da nord-est
Temperature 16°C
Umidità 51%
Pressione 1019 hPa
Visibilità 10 km o più
nessuna nube inferiore a 1500 m e nessun cumulonembo

METAR: LIMJ 060250Z 05011KT CAVOK 16/06 Q1019

Ora: 05:33 (03:33 UTC)

Previsione

Il bollettino è stato emesso 4 ore e 33 minuti fa, alle 23:00 UTC
Previsione valida dal 06 alle 00 UTC al 06 alle 24 UTC
Vento 7 kt da nord/nord-est
Visibilità 10 km o più
nessuna nube inferiore a 1500 m e nessun cumulonembo

TAF: LIMJ 052300Z 0600/0624 03007KT CAVOK

METAR-TAF

Osservazioni e previsioni meteorologiche di più di 4000 aeroporti (messaggi METAR e TAF).

Le stazioni disponibili sono rappresentate dai dischi gialli e rossi sulla carta.

Puntare il mouse per vedere il nome della stazione.

Clicca sopra per visualizzare le osservazioni e previsioni meteorologiche.

Per cambiare la mappa : fare clic sui pulsanti verdi con una croce nera per ingrandire, il pulsante verde con un trattino per diminuire, o sulla freccia verde per le mappe adiacenti.


METAR-TAF: